createdAt,value
2019-06-02T00:09:31.000Z,52.2
2019-06-02T00:19:31.000Z,52.2
2019-06-02T00:39:31.000Z,52.1
2019-06-02T00:49:31.000Z,52.2
2019-06-02T00:59:31.000Z,52.3
2019-06-02T01:09:31.000Z,52.4
2019-06-02T01:19:31.000Z,52.2
2019-06-02T01:29:31.000Z,52.6
2019-06-02T01:39:31.000Z,52.8
2019-06-02T01:49:31.000Z,52.8
2019-06-02T01:59:34.000Z,53
2019-06-02T02:09:31.000Z,53
2019-06-02T02:19:31.000Z,53.2
2019-06-02T02:29:33.000Z,53.4
2019-06-02T02:39:31.000Z,53.3
2019-06-02T02:49:32.000Z,53.3
2019-06-02T02:59:32.000Z,53.4
2019-06-02T03:09:32.000Z,53.5
2019-06-02T03:19:32.000Z,53.7
2019-06-02T03:29:32.000Z,53.7
2019-06-02T03:39:32.000Z,53.8
2019-06-02T03:49:32.000Z,53.8
2019-06-02T03:59:32.000Z,53.8
2019-06-02T04:09:32.000Z,53.9
2019-06-02T04:19:32.000Z,53.8
2019-06-02T04:29:32.000Z,54
2019-06-02T04:39:32.000Z,54.1
2019-06-02T04:49:32.000Z,53.9
2019-06-02T04:59:32.000Z,53.6
2019-06-02T05:09:32.000Z,53.4
2019-06-02T05:19:33.000Z,53.3
2019-06-02T05:29:33.000Z,53
2019-06-02T05:39:32.000Z,52.9
2019-06-02T05:49:32.000Z,52.9
2019-06-02T05:59:32.000Z,53.1
2019-06-02T06:09:33.000Z,53.3
2019-06-02T06:19:32.000Z,53.3
2019-06-02T06:29:32.000Z,53.6
2019-06-02T06:39:33.000Z,53.6
2019-06-02T06:49:35.000Z,53.6
2019-06-02T06:59:32.000Z,54.1
2019-06-02T07:09:32.000Z,54.2
2019-06-02T07:19:34.000Z,54.5
2019-06-02T07:29:32.000Z,54.6
2019-06-02T07:39:32.000Z,54.9
2019-06-02T07:49:32.000Z,55.2
2019-06-02T07:59:32.000Z,55.2
2019-06-02T08:09:32.000Z,55
2019-06-02T08:19:32.000Z,54.7
2019-06-02T08:29:32.000Z,54.7
2019-06-02T08:39:32.000Z,54.7
2019-06-02T08:49:32.000Z,54.7
2019-06-02T08:59:32.000Z,54.7
2019-06-02T09:09:33.000Z,54.8
2019-06-02T09:19:32.000Z,54.8
2019-06-02T09:29:32.000Z,55
2019-06-02T09:39:32.000Z,54.8
2019-06-02T09:49:34.000Z,54.6
2019-06-02T09:59:33.000Z,54.6
2019-06-02T10:09:33.000Z,54.9
2019-06-02T10:19:33.000Z,55.2
2019-06-02T10:29:33.000Z,55.3
2019-06-02T10:39:33.000Z,55.4
2019-06-02T10:49:35.000Z,55.4
2019-06-02T10:59:35.000Z,55.5
2019-06-02T11:09:33.000Z,55.1
2019-06-02T11:19:33.000Z,54.7
2019-06-02T11:39:37.000Z,54.6
2019-06-02T11:59:33.000Z,53.7
2019-06-02T12:09:36.000Z,52
2019-06-02T12:19:33.000Z,52.6
2019-06-02T12:29:33.000Z,52.8
2019-06-02T12:39:35.000Z,52.8
2019-06-02T12:49:34.000Z,52.9
2019-06-02T12:59:33.000Z,53.1
2019-06-02T13:09:33.000Z,53.2
2019-06-02T13:19:33.000Z,53.3
2019-06-02T13:29:33.000Z,53.3
2019-06-02T13:39:36.000Z,53.1
2019-06-02T13:49:33.000Z,52.6
2019-06-02T13:59:33.000Z,52.2
2019-06-02T14:09:34.000Z,51.9
2019-06-02T14:19:33.000Z,51.6
2019-06-02T14:29:33.000Z,50
2019-06-02T14:39:33.000Z,52.1
2019-06-02T14:49:33.000Z,52.7
2019-06-02T14:59:33.000Z,52.3
2019-06-02T15:09:33.000Z,52.1
2019-06-02T15:19:33.000Z,52
2019-06-02T15:29:33.000Z,52
2019-06-02T15:39:33.000Z,52.6
2019-06-02T15:49:34.000Z,55.3
2019-06-02T15:59:33.000Z,57.4
2019-06-02T16:09:33.000Z,59.2
2019-06-02T16:19:34.000Z,58.5
2019-06-02T16:29:33.000Z,57.4
2019-06-02T16:39:34.000Z,56.3
2019-06-02T16:49:34.000Z,54.9
2019-06-02T16:59:34.000Z,55
2019-06-02T17:09:35.000Z,54.8
2019-06-02T17:19:34.000Z,54.8
2019-06-02T17:29:34.000Z,54.7
2019-06-02T17:39:34.000Z,54.5
2019-06-02T17:49:34.000Z,54.1
2019-06-02T17:59:34.000Z,54.1
2019-06-02T18:09:34.000Z,54
2019-06-02T18:19:34.000Z,53.9
2019-06-02T18:29:34.000Z,53.8
2019-06-02T18:39:34.000Z,53.8
2019-06-02T18:49:34.000Z,53.7
2019-06-02T18:59:34.000Z,53.7
2019-06-02T19:09:34.000Z,53.6
2019-06-02T19:19:34.000Z,53.5
2019-06-02T19:29:34.000Z,53.5
2019-06-02T19:39:35.000Z,53.4
2019-06-02T19:49:34.000Z,53.5
2019-06-02T19:59:34.000Z,53.5
2019-06-02T20:09:36.000Z,53.4
2019-06-02T20:19:34.000Z,53.4
2019-06-02T20:29:34.000Z,53.4
2019-06-02T20:39:34.000Z,53.1
2019-06-02T20:49:34.000Z,53.1
2019-06-02T20:59:34.000Z,53
2019-06-02T21:09:35.000Z,53.4
2019-06-02T21:19:34.000Z,53.7
2019-06-02T21:29:34.000Z,54.4
2019-06-02T21:39:34.000Z,54.6
2019-06-02T21:49:34.000Z,54.9
2019-06-02T21:59:34.000Z,54.2
2019-06-02T22:09:34.000Z,53.5
2019-06-02T22:19:38.000Z,52.9
2019-06-02T22:29:35.000Z,51.9
2019-06-02T22:39:34.000Z,51.5
2019-06-02T22:49:34.000Z,51.3
2019-06-02T22:59:34.000Z,50.9
2019-06-02T23:09:35.000Z,50.6
2019-06-02T23:19:35.000Z,50.6
2019-06-02T23:29:35.000Z,50.1
2019-06-02T23:39:38.000Z,49.6
2019-06-02T23:49:35.000Z,48.7
2019-06-02T23:59:35.000Z,48.3
